sensor_id;sensor_type;location;lat;lon;timestamp;P1;durP1;ratioP1;P2;durP2;ratioP2
61322;SDS011;47203;48.428;11.974;2023-02-04T00:00:24;1.75;;;0.73;;
61322;SDS011;47203;48.428;11.974;2023-02-04T00:02:31;2.97;;;1.10;;
61322;SDS011;47203;48.428;11.974;2023-02-04T00:04:36;2.70;;;1.25;;
61322;SDS011;47203;48.428;11.974;2023-02-04T00:06:41;2.60;;;1.27;;
61322;SDS011;47203;48.428;11.974;2023-02-04T00:08:46;4.88;;;1.10;;
61322;SDS011;47203;48.428;11.974;2023-02-04T00:10:50;2.97;;;1.25;;
61322;SDS011;47203;48.428;11.974;2023-02-04T00:12:55;4.38;;;1.40;;
61322;SDS011;47203;48.428;11.974;2023-02-04T00:15:03;4.13;;;1.40;;
61322;SDS011;47203;48.428;11.974;2023-02-04T00:17:08;3.97;;;1.38;;
61322;SDS011;47203;48.428;11.974;2023-02-04T00:19:13;2.47;;;1.23;;
61322;SDS011;47203;48.428;11.974;2023-02-04T00:21:18;4.07;;;1.42;;
61322;SDS011;47203;48.428;11.974;2023-02-04T00:23:23;2.70;;;1.02;;
61322;SDS011;47203;48.428;11.974;2023-02-04T00:25:27;2.42;;;1.08;;
61322;SDS011;47203;48.428;11.974;2023-02-04T00:27:32;4.15;;;1.40;;
61322;SDS011;47203;48.428;11.974;2023-02-04T00:29:37;2.80;;;1.42;;
61322;SDS011;47203;48.428;11.974;2023-02-04T00:31:44;5.90;;;1.52;;
61322;SDS011;47203;48.428;11.974;2023-02-04T00:33:49;7.63;;;1.80;;
61322;SDS011;47203;48.428;11.974;2023-02-04T00:35:54;4.57;;;1.75;;
61322;SDS011;47203;48.428;11.974;2023-02-04T00:37:59;4.95;;;2.25;;
61322;SDS011;47203;48.428;11.974;2023-02-04T00:40:04;4.10;;;2.00;;
61322;SDS011;47203;48.428;11.974;2023-02-04T00:42:09;5.32;;;2.33;;
61322;SDS011;47203;48.428;11.974;2023-02-04T00:44:14;7.80;;;1.70;;
61322;SDS011;47203;48.428;11.974;2023-02-04T00:46:18;3.80;;;1.98;;
61322;SDS011;47203;48.428;11.974;2023-02-04T00:48:26;8.15;;;1.90;;
61322;SDS011;47203;48.428;11.974;2023-02-04T00:50:31;5.80;;;1.83;;
61322;SDS011;47203;48.428;11.974;2023-02-04T00:52:40;6.07;;;1.88;;
61322;SDS011;47203;48.428;11.974;2023-02-04T00:54:44;7.50;;;1.92;;
61322;SDS011;47203;48.428;11.974;2023-02-04T00:56:49;7.57;;;1.75;;
61322;SDS011;47203;48.428;11.974;2023-02-04T00:58:54;8.27;;;2.30;;
61322;SDS011;47203;48.428;11.974;2023-02-04T01:00:58;5.93;;;2.13;;
61322;SDS011;47203;48.428;11.974;2023-02-04T01:03:04;3.95;;;1.60;;
61322;SDS011;47203;48.428;11.974;2023-02-04T01:05:11;6.70;;;2.20;;
61322;SDS011;47203;48.428;11.974;2023-02-04T01:07:16;7.15;;;2.05;;
61322;SDS011;47203;48.428;11.974;2023-02-04T01:09:21;7.10;;;2.53;;
61322;SDS011;47203;48.428;11.974;2023-02-04T01:11:26;7.20;;;2.17;;
61322;SDS011;47203;48.428;11.974;2023-02-04T01:13:31;10.57;;;2.97;;
61322;SDS011;47203;48.428;11.974;2023-02-04T01:15:35;6.07;;;2.15;;
61322;SDS011;47203;48.428;11.974;2023-02-04T01:17:40;6.43;;;2.22;;
61322;SDS011;47203;48.428;11.974;2023-02-04T01:19:46;7.38;;;1.95;;
61322;SDS011;47203;48.428;11.974;2023-02-04T01:21:54;7.75;;;2.05;;
61322;SDS011;47203;48.428;11.974;2023-02-04T01:23:58;6.07;;;2.00;;
61322;SDS011;47203;48.428;11.974;2023-02-04T01:26:03;6.47;;;2.20;;
61322;SDS011;47203;48.428;11.974;2023-02-04T01:28:08;4.70;;;1.92;;
61322;SDS011;47203;48.428;11.974;2023-02-04T01:30:14;7.80;;;2.60;;
61322;SDS011;47203;48.428;11.974;2023-02-04T01:32:19;8.68;;;2.40;;
61322;SDS011;47203;48.428;11.974;2023-02-04T01:34:25;5.22;;;2.20;;
61322;SDS011;47203;48.428;11.974;2023-02-04T01:36:32;7.93;;;2.30;;
61322;SDS011;47203;48.428;11.974;2023-02-04T01:38:39;5.05;;;1.85;;
61322;SDS011;47203;48.428;11.974;2023-02-04T01:40:44;6.63;;;1.88;;
61322;SDS011;47203;48.428;11.974;2023-02-04T01:42:48;7.65;;;2.20;;
61322;SDS011;47203;48.428;11.974;2023-02-04T01:44:54;7.05;;;1.83;;
61322;SDS011;47203;48.428;11.974;2023-02-04T01:46:59;6.65;;;2.10;;
61322;SDS011;47203;48.428;11.974;2023-02-04T01:49:04;6.07;;;1.98;;
61322;SDS011;47203;48.428;11.974;2023-02-04T01:51:12;6.22;;;2.70;;
61322;SDS011;47203;48.428;11.974;2023-02-04T01:53:20;7.90;;;2.72;;
61322;SDS011;47203;48.428;11.974;2023-02-04T01:55:30;7.43;;;3.28;;
61322;SDS011;47203;48.428;11.974;2023-02-04T01:57:36;7.63;;;2.10;;
61322;SDS011;47203;48.428;11.974;2023-02-04T01:59:42;5.35;;;2.33;;
61322;SDS011;47203;48.428;11.974;2023-02-04T02:01:48;6.00;;;2.25;;
61322;SDS011;47203;48.428;11.974;2023-02-04T02:03:54;10.07;;;2.70;;
61322;SDS011;47203;48.428;11.974;2023-02-04T02:06:00;7.95;;;2.53;;
61322;SDS011;47203;48.428;11.974;2023-02-04T02:08:05;8.13;;;2.10;;
61322;SDS011;47203;48.428;11.974;2023-02-04T02:10:11;6.60;;;2.33;;
61322;SDS011;47203;48.428;11.974;2023-02-04T02:12:20;6.07;;;1.98;;
61322;SDS011;47203;48.428;11.974;2023-02-04T02:14:26;7.47;;;2.60;;
61322;SDS011;47203;48.428;11.974;2023-02-04T02:16:31;9.07;;;3.15;;
61322;SDS011;47203;48.428;11.974;2023-02-04T02:18:36;7.95;;;2.22;;
61322;SDS011;47203;48.428;11.974;2023-02-04T02:20:41;5.97;;;2.35;;
61322;SDS011;47203;48.428;11.974;2023-02-04T02:22:50;6.10;;;2.25;;
61322;SDS011;47203;48.428;11.974;2023-02-04T02:25:06;8.50;;;2.42;;
61322;SDS011;47203;48.428;11.974;2023-02-04T02:27:12;6.70;;;2.28;;
61322;SDS011;47203;48.428;11.974;2023-02-04T02:29:17;7.03;;;2.22;;
61322;SDS011;47203;48.428;11.974;2023-02-04T02:31:22;6.05;;;2.08;;
61322;SDS011;47203;48.428;11.974;2023-02-04T02:33:27;6.85;;;2.10;;
61322;SDS011;47203;48.428;11.974;2023-02-04T02:35:32;12.15;;;2.33;;
61322;SDS011;47203;48.428;11.974;2023-02-04T02:37:37;9.70;;;2.35;;
61322;SDS011;47203;48.428;11.974;2023-02-04T02:39:43;7.20;;;2.50;;
61322;SDS011;47203;48.428;11.974;2023-02-04T02:41:51;9.40;;;2.03;;
61322;SDS011;47203;48.428;11.974;2023-02-04T02:43:56;7.07;;;1.80;;
61322;SDS011;47203;48.428;11.974;2023-02-04T02:46:01;5.63;;;1.90;;
61322;SDS011;47203;48.428;11.974;2023-02-04T02:48:07;6.78;;;2.45;;
61322;SDS011;47203;48.428;11.974;2023-02-04T02:50:14;11.75;;;2.78;;
61322;SDS011;47203;48.428;11.974;2023-02-04T02:52:23;5.43;;;2.95;;
61322;SDS011;47203;48.428;11.974;2023-02-04T02:54:28;11.60;;;2.90;;
61322;SDS011;47203;48.428;11.974;2023-02-04T02:56:37;8.57;;;2.20;;
61322;SDS011;47203;48.428;11.974;2023-02-04T02:58:44;6.80;;;2.00;;
61322;SDS011;47203;48.428;11.974;2023-02-04T03:00:50;9.73;;;1.80;;
61322;SDS011;47203;48.428;11.974;2023-02-04T03:03:01;8.25;;;2.40;;
61322;SDS011;47203;48.428;11.974;2023-02-04T03:05:10;9.07;;;2.67;;
61322;SDS011;47203;48.428;11.974;2023-02-04T03:07:16;8.02;;;2.67;;
61322;SDS011;47203;48.428;11.974;2023-02-04T03:09:23;10.23;;;2.70;;
61322;SDS011;47203;48.428;11.974;2023-02-04T03:11:30;5.65;;;2.35;;
61322;SDS011;47203;48.428;11.974;2023-02-04T03:13:35;7.47;;;1.88;;
61322;SDS011;47203;48.428;11.974;2023-02-04T03:15:43;5.63;;;1.92;;
61322;SDS011;47203;48.428;11.974;2023-02-04T03:17:50;6.65;;;2.42;;
61322;SDS011;47203;48.428;11.974;2023-02-04T03:19:57;7.78;;;2.10;;
61322;SDS011;47203;48.428;11.974;2023-02-04T03:22:02;6.88;;;1.85;;
61322;SDS011;47203;48.428;11.974;2023-02-04T03:24:08;5.75;;;2.05;;
61322;SDS011;47203;48.428;11.974;2023-02-04T03:26:13;8.85;;;2.33;;
61322;SDS011;47203;48.428;11.974;2023-02-04T03:28:18;7.40;;;2.20;;
61322;SDS011;47203;48.428;11.974;2023-02-04T03:30:24;7.80;;;2.20;;
61322;SDS011;47203;48.428;11.974;2023-02-04T03:32:32;6.22;;;2.03;;
61322;SDS011;47203;48.428;11.974;2023-02-04T03:34:37;9.10;;;2.63;;
61322;SDS011;47203;48.428;11.974;2023-02-04T03:36:42;4.70;;;1.77;;
61322;SDS011;47203;48.428;11.974;2023-02-04T03:38:47;6.22;;;2.42;;
61322;SDS011;47203;48.428;11.974;2023-02-04T03:40:52;8.30;;;2.35;;
61322;SDS011;47203;48.428;11.974;2023-02-04T03:42:57;9.52;;;2.70;;
61322;SDS011;47203;48.428;11.974;2023-02-04T03:45:02;7.25;;;2.03;;
61322;SDS011;47203;48.428;11.974;2023-02-04T03:47:07;8.00;;;2.30;;
61322;SDS011;47203;48.428;11.974;2023-02-04T03:49:14;10.10;;;2.83;;
61322;SDS011;47203;48.428;11.974;2023-02-04T03:51:19;10.20;;;2.40;;
61322;SDS011;47203;48.428;11.974;2023-02-04T03:53:24;8.43;;;2.10;;
61322;SDS011;47203;48.428;11.974;2023-02-04T03:55:29;14.45;;;2.67;;
61322;SDS011;47203;48.428;11.974;2023-02-04T03:57:34;7.15;;;1.92;;
61322;SDS011;47203;48.428;11.974;2023-02-04T03:59:39;5.55;;;1.98;;
61322;SDS011;47203;48.428;11.974;2023-02-04T04:01:44;6.75;;;2.63;;
61322;SDS011;47203;48.428;11.974;2023-02-04T04:03:49;7.45;;;2.70;;
61322;SDS011;47203;48.428;11.974;2023-02-04T04:05:56;11.35;;;2.40;;
61322;SDS011;47203;48.428;11.974;2023-02-04T04:08:01;7.97;;;2.30;;
61322;SDS011;47203;48.428;11.974;2023-02-04T04:10:06;6.95;;;2.10;;
61322;SDS011;47203;48.428;11.974;2023-02-04T04:12:11;5.97;;;2.25;;
61322;SDS011;47203;48.428;11.974;2023-02-04T04:14:16;5.10;;;1.95;;
61322;SDS011;47203;48.428;11.974;2023-02-04T04:16:21;8.90;;;2.10;;
61322;SDS011;47203;48.428;11.974;2023-02-04T04:18:26;6.13;;;1.75;;
61322;SDS011;47203;48.428;11.974;2023-02-04T04:20:30;8.00;;;2.67;;
61322;SDS011;47203;48.428;11.974;2023-02-04T04:22:38;7.03;;;2.38;;
61322;SDS011;47203;48.428;11.974;2023-02-04T04:24:43;7.43;;;2.58;;
61322;SDS011;47203;48.428;11.974;2023-02-04T04:26:48;8.27;;;2.03;;
61322;SDS011;47203;48.428;11.974;2023-02-04T04:28:53;5.93;;;2.78;;
61322;SDS011;47203;48.428;11.974;2023-02-04T04:30:58;10.93;;;2.28;;
61322;SDS011;47203;48.428;11.974;2023-02-04T04:33:03;6.97;;;2.78;;
61322;SDS011;47203;48.428;11.974;2023-02-04T04:35:07;7.75;;;2.15;;
61322;SDS011;47203;48.428;11.974;2023-02-04T04:37:12;9.05;;;2.42;;
61322;SDS011;47203;48.428;11.974;2023-02-04T04:39:20;6.55;;;1.90;;
61322;SDS011;47203;48.428;11.974;2023-02-04T04:41:25;5.90;;;1.98;;
61322;SDS011;47203;48.428;11.974;2023-02-04T04:43:29;11.48;;;2.60;;
61322;SDS011;47203;48.428;11.974;2023-02-04T04:45:34;8.10;;;2.28;;
61322;SDS011;47203;48.428;11.974;2023-02-04T04:47:39;7.00;;;1.90;;
61322;SDS011;47203;48.428;11.974;2023-02-04T04:49:44;9.35;;;2.22;;
61322;SDS011;47203;48.428;11.974;2023-02-04T04:51:48;6.65;;;2.85;;
61322;SDS011;47203;48.428;11.974;2023-02-04T04:53:53;9.60;;;2.17;;
61322;SDS011;47203;48.428;11.974;2023-02-04T04:56:01;6.43;;;2.30;;
61322;SDS011;47203;48.428;11.974;2023-02-04T04:58:06;5.25;;;1.85;;
61322;SDS011;47203;48.428;11.974;2023-02-04T05:00:14;8.95;;;2.55;;
61322;SDS011;47203;48.428;11.974;2023-02-04T05:02:20;8.32;;;2.22;;
61322;SDS011;47203;48.428;11.974;2023-02-04T05:04:25;6.63;;;2.35;;
61322;SDS011;47203;48.428;11.974;2023-02-04T05:06:30;6.38;;;2.33;;
61322;SDS011;47203;48.428;11.974;2023-02-04T05:08:34;10.15;;;2.70;;
61322;SDS011;47203;48.428;11.974;2023-02-04T05:10:39;7.45;;;2.35;;
61322;SDS011;47203;48.428;11.974;2023-02-04T05:12:47;6.20;;;2.25;;
61322;SDS011;47203;48.428;11.974;2023-02-04T05:14:51;7.25;;;2.10;;
61322;SDS011;47203;48.428;11.974;2023-02-04T05:16:56;7.95;;;2.80;;
61322;SDS011;47203;48.428;11.974;2023-02-04T05:19:01;7.20;;;2.78;;
61322;SDS011;47203;48.428;11.974;2023-02-04T05:21:05;9.00;;;3.22;;
61322;SDS011;47203;48.428;11.974;2023-02-04T05:23:11;8.63;;;2.75;;
61322;SDS011;47203;48.428;11.974;2023-02-04T05:25:17;7.93;;;2.65;;
61322;SDS011;47203;48.428;11.974;2023-02-04T05:27:22;6.32;;;2.78;;
61322;SDS011;47203;48.428;11.974;2023-02-04T05:29:29;8.38;;;2.03;;
61322;SDS011;47203;48.428;11.974;2023-02-04T05:31:34;7.57;;;2.53;;
61322;SDS011;47203;48.428;11.974;2023-02-04T05:33:39;7.40;;;2.33;;
61322;SDS011;47203;48.428;11.974;2023-02-04T05:35:44;7.88;;;2.33;;
61322;SDS011;47203;48.428;11.974;2023-02-04T05:37:50;8.93;;;2.35;;
61322;SDS011;47203;48.428;11.974;2023-02-04T05:39:55;11.52;;;2.60;;
61322;SDS011;47203;48.428;11.974;2023-02-04T05:42:00;6.10;;;2.08;;
61322;SDS011;47203;48.428;11.974;2023-02-04T05:44:05;6.68;;;2.30;;
61322;SDS011;47203;48.428;11.974;2023-02-04T05:46:12;8.63;;;2.28;;
61322;SDS011;47203;48.428;11.974;2023-02-04T05:48:17;7.63;;;2.65;;
61322;SDS011;47203;48.428;11.974;2023-02-04T05:50:22;6.95;;;2.15;;
61322;SDS011;47203;48.428;11.974;2023-02-04T05:52:41;10.77;;;2.95;;
61322;SDS011;47203;48.428;11.974;2023-02-04T05:54:46;6.97;;;2.50;;
61322;SDS011;47203;48.428;11.974;2023-02-04T05:56:51;6.20;;;2.38;;
61322;SDS011;47203;48.428;11.974;2023-02-04T05:58:56;6.45;;;1.95;;
61322;SDS011;47203;48.428;11.974;2023-02-04T06:01:00;8.07;;;2.70;;
61322;SDS011;47203;48.428;11.974;2023-02-04T06:03:09;6.75;;;2.50;;
61322;SDS011;47203;48.428;11.974;2023-02-04T06:05:15;11.07;;;3.05;;
61322;SDS011;47203;48.428;11.974;2023-02-04T06:07:20;8.23;;;2.22;;
61322;SDS011;47203;48.428;11.974;2023-02-04T06:09:24;7.25;;;2.40;;
61322;SDS011;47203;48.428;11.974;2023-02-04T06:11:29;6.55;;;2.58;;
61322;SDS011;47203;48.428;11.974;2023-02-04T06:13:34;8.57;;;2.50;;
61322;SDS011;47203;48.428;11.974;2023-02-04T06:15:39;6.65;;;2.25;;
61322;SDS011;47203;48.428;11.974;2023-02-04T06:17:44;9.93;;;2.45;;
61322;SDS011;47203;48.428;11.974;2023-02-04T06:19:51;8.18;;;1.90;;
61322;SDS011;47203;48.428;11.974;2023-02-04T06:21:56;9.75;;;2.42;;
61322;SDS011;47203;48.428;11.974;2023-02-04T06:24:00;9.38;;;1.80;;
61322;SDS011;47203;48.428;11.974;2023-02-04T06:26:05;5.38;;;1.90;;
61322;SDS011;47203;48.428;11.974;2023-02-04T06:28:10;7.13;;;2.25;;
61322;SDS011;47203;48.428;11.974;2023-02-04T06:30:16;6.25;;;2.25;;
61322;SDS011;47203;48.428;11.974;2023-02-04T06:32:21;8.40;;;2.33;;
61322;SDS011;47203;48.428;11.974;2023-02-04T06:34:26;7.28;;;2.22;;
61322;SDS011;47203;48.428;11.974;2023-02-04T06:36:33;7.90;;;3.13;;
61322;SDS011;47203;48.428;11.974;2023-02-04T06:38:38;6.65;;;1.80;;
61322;SDS011;47203;48.428;11.974;2023-02-04T06:40:42;5.63;;;2.20;;
61322;SDS011;47203;48.428;11.974;2023-02-04T06:42:49;5.82;;;2.00;;
61322;SDS011;47203;48.428;11.974;2023-02-04T06:44:54;3.80;;;2.05;;
61322;SDS011;47203;48.428;11.974;2023-02-04T06:46:59;5.75;;;2.03;;
61322;SDS011;47203;48.428;11.974;2023-02-04T06:49:04;6.82;;;2.00;;
61322;SDS011;47203;48.428;11.974;2023-02-04T06:51:08;8.43;;;2.70;;
61322;SDS011;47203;48.428;11.974;2023-02-04T06:53:16;5.15;;;1.95;;
61322;SDS011;47203;48.428;11.974;2023-02-04T06:55:20;10.30;;;2.90;;
61322;SDS011;47203;48.428;11.974;2023-02-04T06:57:25;8.65;;;2.97;;
61322;SDS011;47203;48.428;11.974;2023-02-04T06:59:30;6.00;;;2.05;;
61322;SDS011;47203;48.428;11.974;2023-02-04T07:01:35;5.65;;;1.98;;
61322;SDS011;47203;48.428;11.974;2023-02-04T07:03:40;5.70;;;2.08;;
61322;SDS011;47203;48.428;11.974;2023-02-04T07:05:44;8.68;;;2.63;;
61322;SDS011;47203;48.428;11.974;2023-02-04T07:07:49;7.15;;;2.55;;
61322;SDS011;47203;48.428;11.974;2023-02-04T07:09:57;5.93;;;1.90;;
61322;SDS011;47203;48.428;11.974;2023-02-04T07:12:02;9.35;;;2.13;;
61322;SDS011;47203;48.428;11.974;2023-02-04T07:14:07;5.80;;;2.25;;
61322;SDS011;47203;48.428;11.974;2023-02-04T07:16:12;6.97;;;1.90;;
61322;SDS011;47203;48.428;11.974;2023-02-04T07:18:17;6.80;;;2.00;;
61322;SDS011;47203;48.428;11.974;2023-02-04T07:20:22;5.22;;;2.70;;
61322;SDS011;47203;48.428;11.974;2023-02-04T07:22:26;6.32;;;2.30;;
61322;SDS011;47203;48.428;11.974;2023-02-04T07:24:31;6.75;;;2.00;;
61322;SDS011;47203;48.428;11.974;2023-02-04T07:26:39;7.13;;;1.80;;
61322;SDS011;47203;48.428;11.974;2023-02-04T07:28:43;7.95;;;1.77;;
61322;SDS011;47203;48.428;11.974;2023-02-04T07:30:49;7.20;;;2.58;;
61322;SDS011;47203;48.428;11.974;2023-02-04T07:32:54;6.80;;;2.45;;
61322;SDS011;47203;48.428;11.974;2023-02-04T07:34:59;6.32;;;2.28;;
61322;SDS011;47203;48.428;11.974;2023-02-04T07:37:04;8.98;;;2.08;;
61322;SDS011;47203;48.428;11.974;2023-02-04T07:39:08;6.70;;;2.00;;
61322;SDS011;47203;48.428;11.974;2023-02-04T07:41:14;8.15;;;2.20;;
61322;SDS011;47203;48.428;11.974;2023-02-04T07:43:22;4.85;;;3.20;;
61322;SDS011;47203;48.428;11.974;2023-02-04T07:45:27;8.60;;;1.98;;
61322;SDS011;47203;48.428;11.974;2023-02-04T07:47:32;6.47;;;2.05;;
61322;SDS011;47203;48.428;11.974;2023-02-04T07:49:37;4.85;;;2.03;;
61322;SDS011;47203;48.428;11.974;2023-02-04T07:51:42;4.68;;;1.92;;
61322;SDS011;47203;48.428;11.974;2023-02-04T07:53:46;4.07;;;1.92;;
61322;SDS011;47203;48.428;11.974;2023-02-04T07:55:51;7.05;;;1.92;;
61322;SDS011;47203;48.428;11.974;2023-02-04T07:57:56;3.83;;;1.90;;
61322;SDS011;47203;48.428;11.974;2023-02-04T08:00:04;6.63;;;2.20;;
61322;SDS011;47203;48.428;11.974;2023-02-04T08:02:15;6.50;;;2.00;;
61322;SDS011;47203;48.428;11.974;2023-02-04T08:04:20;2.97;;;0.95;;
61322;SDS011;47203;48.428;11.974;2023-02-04T08:06:25;1.83;;;0.77;;
61322;SDS011;47203;48.428;11.974;2023-02-04T08:08:29;1.05;;;0.63;;
61322;SDS011;47203;48.428;11.974;2023-02-04T08:10:34;2.30;;;0.70;;
61322;SDS011;47203;48.428;11.974;2023-02-04T08:12:39;1.13;;;0.52;;
61322;SDS011;47203;48.428;11.974;2023-02-04T08:14:44;0.77;;;0.50;;
61322;SDS011;47203;48.428;11.974;2023-02-04T08:16:51;0.98;;;0.43;;
61322;SDS011;47203;48.428;11.974;2023-02-04T08:18:56;1.45;;;0.80;;
61322;SDS011;47203;48.428;11.974;2023-02-04T08:21:00;0.95;;;0.70;;
61322;SDS011;47203;48.428;11.974;2023-02-04T08:23:06;1.35;;;0.80;;
61322;SDS011;47203;48.428;11.974;2023-02-04T08:25:11;1.20;;;0.70;;
61322;SDS011;47203;48.428;11.974;2023-02-04T08:27:16;2.70;;;0.80;;
61322;SDS011;47203;48.428;11.974;2023-02-04T08:29:21;1.30;;;0.57;;
61322;SDS011;47203;48.428;11.974;2023-02-04T08:31:26;1.23;;;0.80;;
61322;SDS011;47203;48.428;11.974;2023-02-04T08:33:33;1.05;;;0.70;;
61322;SDS011;47203;48.428;11.974;2023-02-04T08:35:38;1.38;;;0.90;;
61322;SDS011;47203;48.428;11.974;2023-02-04T08:37:43;5.13;;;0.88;;
61322;SDS011;47203;48.428;11.974;2023-02-04T08:39:48;2.08;;;0.98;;
61322;SDS011;47203;48.428;11.974;2023-02-04T08:41:53;3.38;;;1.95;;
61322;SDS011;47203;48.428;11.974;2023-02-04T08:43:57;4.85;;;2.30;;
61322;SDS011;47203;48.428;11.974;2023-02-04T08:46:02;2.55;;;1.55;;
61322;SDS011;47203;48.428;11.974;2023-02-04T08:48:07;2.28;;;1.00;;
61322;SDS011;47203;48.428;11.974;2023-02-04T08:50:15;1.42;;;1.00;;
61322;SDS011;47203;48.428;11.974;2023-02-04T08:52:20;1.92;;;0.82;;
61322;SDS011;47203;48.428;11.974;2023-02-04T08:54:25;1.98;;;1.00;;
61322;SDS011;47203;48.428;11.974;2023-02-04T08:56:29;2.50;;;1.35;;
61322;SDS011;47203;48.428;11.974;2023-02-04T08:58:38;2.22;;;1.40;;
61322;SDS011;47203;48.428;11.974;2023-02-04T09:00:43;3.60;;;2.28;;
61322;SDS011;47203;48.428;11.974;2023-02-04T09:02:48;1.35;;;1.25;;
61322;SDS011;47203;48.428;11.974;2023-02-04T09:04:52;1.52;;;0.88;;
61322;SDS011;47203;48.428;11.974;2023-02-04T09:07:00;1.90;;;0.90;;
61322;SDS011;47203;48.428;11.974;2023-02-04T09:09:05;2.25;;;0.80;;
61322;SDS011;47203;48.428;11.974;2023-02-04T09:11:10;2.00;;;0.93;;
61322;SDS011;47203;48.428;11.974;2023-02-04T09:13:15;3.53;;;1.40;;
61322;SDS011;47203;48.428;11.974;2023-02-04T09:15:20;2.83;;;1.40;;
61322;SDS011;47203;48.428;11.974;2023-02-04T09:17:26;1.85;;;1.23;;
61322;SDS011;47203;48.428;11.974;2023-02-04T09:19:30;1.95;;;1.35;;
61322;SDS011;47203;48.428;11.974;2023-02-04T09:21:35;3.17;;;1.58;;
61322;SDS011;47203;48.428;11.974;2023-02-04T09:23:42;3.08;;;1.92;;
61322;SDS011;47203;48.428;11.974;2023-02-04T09:25:49;1.77;;;1.20;;
61322;SDS011;47203;48.428;11.974;2023-02-04T09:27:53;2.22;;;1.23;;
61322;SDS011;47203;48.428;11.974;2023-02-04T09:29:58;3.47;;;1.58;;
61322;SDS011;47203;48.428;11.974;2023-02-04T09:32:03;4.63;;;1.83;;
61322;SDS011;47203;48.428;11.974;2023-02-04T09:34:08;1.77;;;1.13;;
61322;SDS011;47203;48.428;11.974;2023-02-04T09:36:13;4.18;;;1.50;;
61322;SDS011;47203;48.428;11.974;2023-02-04T09:38:18;3.30;;;1.23;;
61322;SDS011;47203;48.428;11.974;2023-02-04T09:40:25;2.15;;;1.30;;
61322;SDS011;47203;48.428;11.974;2023-02-04T09:42:32;1.38;;;0.93;;
61322;SDS011;47203;48.428;11.974;2023-02-04T09:44:36;1.83;;;0.90;;
61322;SDS011;47203;48.428;11.974;2023-02-04T09:46:41;2.50;;;1.70;;
61322;SDS011;47203;48.428;11.974;2023-02-04T09:48:50;3.65;;;1.52;;
61322;SDS011;47203;48.428;11.974;2023-02-04T09:51:00;1.85;;;1.20;;
61322;SDS011;47203;48.428;11.974;2023-02-04T09:53:08;1.63;;;1.00;;
61322;SDS011;47203;48.428;11.974;2023-02-04T09:55:19;1.17;;;1.00;;
61322;SDS011;47203;48.428;11.974;2023-02-04T09:57:35;1.02;;;0.82;;
61322;SDS011;47203;48.428;11.974;2023-02-04T09:59:41;1.80;;;0.82;;
61322;SDS011;47203;48.428;11.974;2023-02-04T10:01:50;1.52;;;0.82;;
61322;SDS011;47203;48.428;11.974;2023-02-04T10:04:03;1.48;;;1.05;;
61322;SDS011;47203;48.428;11.974;2023-02-04T10:06:08;2.88;;;1.17;;
61322;SDS011;47203;48.428;11.974;2023-02-04T10:08:13;2.25;;;1.40;;
61322;SDS011;47203;48.428;11.974;2023-02-04T10:10:20;3.10;;;1.35;;
61322;SDS011;47203;48.428;11.974;2023-02-04T10:12:27;2.63;;;1.48;;
61322;SDS011;47203;48.428;11.974;2023-02-04T10:14:35;3.30;;;1.63;;
61322;SDS011;47203;48.428;11.974;2023-02-04T10:16:40;2.88;;;1.30;;
61322;SDS011;47203;48.428;11.974;2023-02-04T10:18:48;1.67;;;1.10;;
61322;SDS011;47203;48.428;11.974;2023-02-04T10:20:54;1.60;;;1.20;;
61322;SDS011;47203;48.428;11.974;2023-02-04T10:23:04;1.10;;;0.80;;
61322;SDS011;47203;48.428;11.974;2023-02-04T10:25:14;2.55;;;1.17;;
61322;SDS011;47203;48.428;11.974;2023-02-04T10:27:20;2.53;;;1.23;;
61322;SDS011;47203;48.428;11.974;2023-02-04T10:29:26;2.13;;;0.93;;
61322;SDS011;47203;48.428;11.974;2023-02-04T10:31:37;1.65;;;0.95;;
61322;SDS011;47203;48.428;11.974;2023-02-04T10:33:43;1.40;;;0.95;;
61322;SDS011;47203;48.428;11.974;2023-02-04T10:35:49;2.33;;;0.93;;
61322;SDS011;47203;48.428;11.974;2023-02-04T10:38:05;0.95;;;0.82;;
61322;SDS011;47203;48.428;11.974;2023-02-04T10:40:24;1.05;;;0.80;;
61322;SDS011;47203;48.428;11.974;2023-02-04T10:42:31;1.40;;;1.13;;
61322;SDS011;47203;48.428;11.974;2023-02-04T10:44:35;1.13;;;0.88;;
61322;SDS011;47203;48.428;11.974;2023-02-04T10:46:43;1.92;;;1.30;;
61322;SDS011;47203;48.428;11.974;2023-02-04T10:48:48;2.13;;;1.10;;
61322;SDS011;47203;48.428;11.974;2023-02-04T10:50:53;1.35;;;1.15;;
61322;SDS011;47203;48.428;11.974;2023-02-04T10:53:04;1.23;;;1.00;;
61322;SDS011;47203;48.428;11.974;2023-02-04T10:55:24;1.23;;;0.95;;
61322;SDS011;47203;48.428;11.974;2023-02-04T10:57:36;1.65;;;0.90;;
61322;SDS011;47203;48.428;11.974;2023-02-04T11:01:51;1.42;;;0.90;;
61322;SDS011;47203;48.428;11.974;2023-02-04T11:03:55;1.13;;;0.70;;
61322;SDS011;47203;48.428;11.974;2023-02-04T11:06:00;1.27;;;0.85;;
61322;SDS011;47203;48.428;11.974;2023-02-04T11:08:17;1.50;;;1.00;;
61322;SDS011;47203;48.428;11.974;2023-02-04T11:10:27;0.68;;;0.60;;
61322;SDS011;47203;48.428;11.974;2023-02-04T11:12:35;1.13;;;0.98;;
61322;SDS011;47203;48.428;11.974;2023-02-04T11:14:41;0.73;;;0.60;;
61322;SDS011;47203;48.428;11.974;2023-02-04T11:16:46;0.88;;;0.52;;
61322;SDS011;47203;48.428;11.974;2023-02-04T11:18:55;0.85;;;0.50;;
61322;SDS011;47203;48.428;11.974;2023-02-04T11:21:01;1.10;;;0.80;;
61322;SDS011;47203;48.428;11.974;2023-02-04T11:23:32;1.00;;;0.75;;
61322;SDS011;47203;48.428;11.974;2023-02-04T11:25:39;0.70;;;0.65;;
61322;SDS011;47203;48.428;11.974;2023-02-04T11:27:44;1.48;;;0.90;;
61322;SDS011;47203;48.428;11.974;2023-02-04T11:29:49;1.27;;;0.90;;
61322;SDS011;47203;48.428;11.974;2023-02-04T11:31:58;0.88;;;0.80;;
61322;SDS011;47203;48.428;11.974;2023-02-04T11:36:16;1.10;;;0.88;;
61322;SDS011;47203;48.428;11.974;2023-02-04T11:38:22;1.15;;;0.60;;
61322;SDS011;47203;48.428;11.974;2023-02-04T11:40:30;1.25;;;0.70;;
61322;SDS011;47203;48.428;11.974;2023-02-04T11:42:38;1.08;;;0.70;;
61322;SDS011;47203;48.428;11.974;2023-02-04T11:44:47;2.05;;;0.70;;
61322;SDS011;47203;48.428;11.974;2023-02-04T11:46:53;1.00;;;0.70;;
61322;SDS011;47203;48.428;11.974;2023-02-04T11:49:00;1.45;;;0.85;;
61322;SDS011;47203;48.428;11.974;2023-02-04T11:51:12;1.13;;;0.80;;
61322;SDS011;47203;48.428;11.974;2023-02-04T11:53:19;1.38;;;0.80;;
61322;SDS011;47203;48.428;11.974;2023-02-04T11:55:28;1.48;;;0.93;;
61322;SDS011;47203;48.428;11.974;2023-02-04T11:57:37;0.90;;;0.60;;
61322;SDS011;47203;48.428;11.974;2023-02-04T11:59:43;1.67;;;0.68;;
61322;SDS011;47203;48.428;11.974;2023-02-04T12:01:48;1.42;;;1.20;;
61322;SDS011;47203;48.428;11.974;2023-02-04T12:03:55;9.13;;;5.65;;
61322;SDS011;47203;48.428;11.974;2023-02-04T12:06:01;7.82;;;4.25;;
61322;SDS011;47203;48.428;11.974;2023-02-04T12:08:23;4.07;;;2.53;;
61322;SDS011;47203;48.428;11.974;2023-02-04T12:12:40;3.78;;;2.42;;
61322;SDS011;47203;48.428;11.974;2023-02-04T12:14:45;1.73;;;1.00;;
61322;SDS011;47203;48.428;11.974;2023-02-04T12:17:00;1.60;;;1.08;;
61322;SDS011;47203;48.428;11.974;2023-02-04T12:19:04;1.20;;;0.80;;
61322;SDS011;47203;48.428;11.974;2023-02-04T12:21:09;0.80;;;0.57;;
61322;SDS011;47203;48.428;11.974;2023-02-04T12:23:17;0.93;;;0.70;;
61322;SDS011;47203;48.428;11.974;2023-02-04T12:25:22;0.85;;;0.63;;
61322;SDS011;47203;48.428;11.974;2023-02-04T12:27:27;0.98;;;0.60;;
61322;SDS011;47203;48.428;11.974;2023-02-04T12:29:32;1.10;;;0.70;;
61322;SDS011;47203;48.428;11.974;2023-02-04T12:31:36;1.05;;;0.80;;
61322;SDS011;47203;48.428;11.974;2023-02-04T12:33:41;1.25;;;0.70;;